sensor_id;sensor_type;location;lat;lon;timestamp;P1;durP1;ratioP1;P2;durP2;ratioP2
61505;SDS011;47366;51.916;4.574;2022-07-23T05:23:20;2.65;;;1.67;;
61505;SDS011;47366;51.916;4.574;2022-07-23T05:25:45;3.22;;;1.50;;
61505;SDS011;47366;51.916;4.574;2022-07-23T05:28:11;2.83;;;1.48;;
61505;SDS011;47366;51.916;4.574;2022-07-23T05:30:36;4.13;;;1.27;;
61505;SDS011;47366;51.916;4.574;2022-07-23T05:33:02;2.53;;;1.27;;
61505;SDS011;47366;51.916;4.574;2022-07-23T05:35:27;2.03;;;1.08;;
61505;SDS011;47366;51.916;4.574;2022-07-23T05:37:52;1.73;;;1.10;;
61505;SDS011;47366;51.916;4.574;2022-07-23T05:40:18;12.25;;;1.17;;
61505;SDS011;47366;51.916;4.574;2022-07-23T05:42:43;2.00;;;1.10;;
61505;SDS011;47366;51.916;4.574;2022-07-23T05:45:09;5.95;;;1.48;;
61505;SDS011;47366;51.916;4.574;2022-07-23T05:47:44;1.77;;;0.90;;
61505;SDS011;47366;51.916;4.574;2022-07-23T05:50:13;4.18;;;1.10;;
61505;SDS011;47366;51.916;4.574;2022-07-23T05:52:40;2.53;;;1.40;;
61505;SDS011;47366;51.916;4.574;2022-07-23T05:55:06;3.70;;;0.95;;
61505;SDS011;47366;51.916;4.574;2022-07-23T05:57:33;2.95;;;1.10;;
61505;SDS011;47366;51.916;4.574;2022-07-23T05:59:58;3.97;;;1.58;;
61505;SDS011;47366;51.916;4.574;2022-07-23T06:02:23;4.70;;;1.48;;
61505;SDS011;47366;51.916;4.574;2022-07-23T06:04:49;2.75;;;1.25;;
61505;SDS011;47366;51.916;4.574;2022-07-23T06:07:14;1.90;;;1.15;;
61505;SDS011;47366;51.916;4.574;2022-07-23T06:09:39;1.63;;;0.80;;
61505;SDS011;47366;51.916;4.574;2022-07-23T06:12:05;4.45;;;1.10;;
61505;SDS011;47366;51.916;4.574;2022-07-23T06:14:30;2.80;;;1.30;;
61505;SDS011;47366;51.916;4.574;2022-07-23T06:16:55;6.95;;;1.50;;
61505;SDS011;47366;51.916;4.574;2022-07-23T06:19:21;1.60;;;0.88;;
61505;SDS011;47366;51.916;4.574;2022-07-23T06:21:46;1.50;;;0.88;;
61505;SDS011;47366;51.916;4.574;2022-07-23T06:24:12;5.30;;;1.40;;
61505;SDS011;47366;51.916;4.574;2022-07-23T06:26:37;2.25;;;1.15;;
61505;SDS011;47366;51.916;4.574;2022-07-23T06:29:02;1.48;;;0.73;;
61505;SDS011;47366;51.916;4.574;2022-07-23T06:31:28;1.48;;;0.85;;
61505;SDS011;47366;51.916;4.574;2022-07-23T06:33:53;2.65;;;1.40;;
61505;SDS011;47366;51.916;4.574;2022-07-23T06:36:19;2.38;;;1.30;;
61505;SDS011;47366;51.916;4.574;2022-07-23T06:38:44;2.63;;;1.13;;
61505;SDS011;47366;51.916;4.574;2022-07-23T06:41:10;1.95;;;1.15;;
61505;SDS011;47366;51.916;4.574;2022-07-23T06:43:35;2.05;;;1.13;;
61505;SDS011;47366;51.916;4.574;2022-07-23T06:46:00;2.70;;;0.90;;
61505;SDS011;47366;51.916;4.574;2022-07-23T06:48:26;1.33;;;1.02;;
61505;SDS011;47366;51.916;4.574;2022-07-23T06:50:51;1.73;;;1.08;;
61505;SDS011;47366;51.916;4.574;2022-07-23T06:53:17;4.20;;;1.02;;
61505;SDS011;47366;51.916;4.574;2022-07-23T06:55:43;2.65;;;1.10;;
61505;SDS011;47366;51.916;4.574;2022-07-23T06:58:08;1.80;;;1.10;;
61505;SDS011;47366;51.916;4.574;2022-07-23T07:00:34;1.85;;;0.95;;
61505;SDS011;47366;51.916;4.574;2022-07-23T07:03:00;1.55;;;0.93;;
61505;SDS011;47366;51.916;4.574;2022-07-23T07:05:25;2.67;;;1.42;;
61505;SDS011;47366;51.916;4.574;2022-07-23T07:07:52;3.33;;;1.50;;
61505;SDS011;47366;51.916;4.574;2022-07-23T07:10:19;2.15;;;0.88;;
61505;SDS011;47366;51.916;4.574;2022-07-23T07:12:44;2.97;;;1.20;;
61505;SDS011;47366;51.916;4.574;2022-07-23T07:15:10;6.05;;;1.45;;
61505;SDS011;47366;51.916;4.574;2022-07-23T07:17:36;3.75;;;1.40;;
61505;SDS011;47366;51.916;4.574;2022-07-23T07:20:02;2.97;;;1.27;;
61505;SDS011;47366;51.916;4.574;2022-07-23T07:22:27;6.97;;;1.20;;
61505;SDS011;47366;51.916;4.574;2022-07-23T07:24:52;1.70;;;1.02;;
61505;SDS011;47366;51.916;4.574;2022-07-23T07:27:18;2.83;;;1.35;;
61505;SDS011;47366;51.916;4.574;2022-07-23T07:29:43;5.32;;;1.33;;
61505;SDS011;47366;51.916;4.574;2022-07-23T07:32:09;7.18;;;1.52;;
61505;SDS011;47366;51.916;4.574;2022-07-23T07:34:34;1.88;;;1.27;;
61505;SDS011;47366;51.916;4.574;2022-07-23T07:36:59;1.70;;;1.02;;
61505;SDS011;47366;51.916;4.574;2022-07-23T07:39:24;2.35;;;1.25;;
61505;SDS011;47366;51.916;4.574;2022-07-23T07:41:50;4.93;;;1.38;;
61505;SDS011;47366;51.916;4.574;2022-07-23T07:44:15;2.83;;;1.38;;
61505;SDS011;47366;51.916;4.574;2022-07-23T07:46:41;2.05;;;1.17;;
61505;SDS011;47366;51.916;4.574;2022-07-23T07:49:09;2.20;;;1.30;;
61505;SDS011;47366;51.916;4.574;2022-07-23T07:51:35;3.90;;;1.45;;
61505;SDS011;47366;51.916;4.574;2022-07-23T07:54:00;8.00;;;1.65;;
61505;SDS011;47366;51.916;4.574;2022-07-23T07:56:26;4.07;;;1.63;;
61505;SDS011;47366;51.916;4.574;2022-07-23T07:58:51;3.22;;;1.38;;
61505;SDS011;47366;51.916;4.574;2022-07-23T08:01:16;5.82;;;1.63;;
61505;SDS011;47366;51.916;4.574;2022-07-23T08:03:44;4.30;;;1.15;;
61505;SDS011;47366;51.916;4.574;2022-07-23T08:06:09;2.08;;;1.20;;
61505;SDS011;47366;51.916;4.574;2022-07-23T08:08:34;5.03;;;1.38;;
61505;SDS011;47366;51.916;4.574;2022-07-23T08:11:00;3.65;;;1.50;;
61505;SDS011;47366;51.916;4.574;2022-07-23T08:13:25;4.60;;;1.38;;
61505;SDS011;47366;51.916;4.574;2022-07-23T08:15:50;6.00;;;1.40;;
61505;SDS011;47366;51.916;4.574;2022-07-23T08:18:18;2.72;;;1.17;;
61505;SDS011;47366;51.916;4.574;2022-07-23T08:20:43;3.05;;;1.35;;
61505;SDS011;47366;51.916;4.574;2022-07-23T08:23:09;5.22;;;1.60;;
61505;SDS011;47366;51.916;4.574;2022-07-23T08:25:36;2.08;;;1.30;;
61505;SDS011;47366;51.916;4.574;2022-07-23T08:28:07;3.33;;;1.48;;
61505;SDS011;47366;51.916;4.574;2022-07-23T08:30:34;4.13;;;1.42;;
61505;SDS011;47366;51.916;4.574;2022-07-23T08:33:05;2.65;;;1.13;;
61505;SDS011;47366;51.916;4.574;2022-07-23T08:35:33;4.20;;;1.30;;
61505;SDS011;47366;51.916;4.574;2022-07-23T08:38:02;4.55;;;1.73;;
61505;SDS011;47366;51.916;4.574;2022-07-23T08:40:32;3.33;;;1.33;;
61505;SDS011;47366;51.916;4.574;2022-07-23T08:43:00;3.03;;;1.50;;
61505;SDS011;47366;51.916;4.574;2022-07-23T08:45:30;4.20;;;1.90;;
61505;SDS011;47366;51.916;4.574;2022-07-23T08:47:56;3.60;;;1.83;;
61505;SDS011;47366;51.916;4.574;2022-07-23T08:50:25;4.78;;;1.92;;
61505;SDS011;47366;51.916;4.574;2022-07-23T08:52:50;2.25;;;1.50;;
61505;SDS011;47366;51.916;4.574;2022-07-23T08:55:17;4.78;;;1.65;;
61505;SDS011;47366;51.916;4.574;2022-07-23T08:57:44;2.90;;;1.60;;
61505;SDS011;47366;51.916;4.574;2022-07-23T09:00:12;1.90;;;1.45;;
61505;SDS011;47366;51.916;4.574;2022-07-23T09:02:39;4.00;;;1.48;;
61505;SDS011;47366;51.916;4.574;2022-07-23T09:05:06;4.00;;;1.45;;
61505;SDS011;47366;51.916;4.574;2022-07-23T09:07:32;4.53;;;1.70;;
61505;SDS011;47366;51.916;4.574;2022-07-23T09:10:05;5.70;;;1.38;;
61505;SDS011;47366;51.916;4.574;2022-07-23T09:12:35;5.53;;;1.63;;
61505;SDS011;47366;51.916;4.574;2022-07-23T09:15:04;4.65;;;1.98;;
61505;SDS011;47366;51.916;4.574;2022-07-23T09:17:36;4.20;;;1.63;;
61505;SDS011;47366;51.916;4.574;2022-07-23T09:22:33;4.32;;;1.75;;
61505;SDS011;47366;51.916;4.574;2022-07-23T09:25:11;5.07;;;1.65;;
61505;SDS011;47366;51.916;4.574;2022-07-23T09:30:19;4.38;;;1.92;;
61505;SDS011;47366;51.916;4.574;2022-07-23T09:33:03;3.75;;;1.70;;
61505;SDS011;47366;51.916;4.574;2022-07-23T09:38:14;2.60;;;1.50;;
61505;SDS011;47366;51.916;4.574;2022-07-23T09:40:39;1.77;;;1.17;;
61505;SDS011;47366;51.916;4.574;2022-07-23T09:43:05;3.10;;;1.48;;
61505;SDS011;47366;51.916;4.574;2022-07-23T09:45:30;4.53;;;2.13;;
61505;SDS011;47366;51.916;4.574;2022-07-23T09:50:38;1.63;;;1.05;;
61505;SDS011;47366;51.916;4.574;2022-07-23T09:53:04;5.45;;;1.70;;
61505;SDS011;47366;51.916;4.574;2022-07-23T09:55:33;4.30;;;2.05;;
61505;SDS011;47366;51.916;4.574;2022-07-23T09:58:01;5.78;;;2.20;;
61505;SDS011;47366;51.916;4.574;2022-07-23T10:00:28;3.30;;;1.63;;
61505;SDS011;47366;51.916;4.574;2022-07-23T10:02:54;4.72;;;1.70;;
61505;SDS011;47366;51.916;4.574;2022-07-23T10:05:19;3.35;;;1.80;;
61505;SDS011;47366;51.916;4.574;2022-07-23T10:07:46;3.28;;;1.50;;
61505;SDS011;47366;51.916;4.574;2022-07-23T10:10:11;4.82;;;1.40;;
61505;SDS011;47366;51.916;4.574;2022-07-23T10:12:38;6.53;;;2.03;;
61505;SDS011;47366;51.916;4.574;2022-07-23T10:15:13;4.25;;;2.05;;
61505;SDS011;47366;51.916;4.574;2022-07-23T10:17:38;4.90;;;1.98;;
61505;SDS011;47366;51.916;4.574;2022-07-23T10:20:04;3.22;;;1.80;;
61505;SDS011;47366;51.916;4.574;2022-07-23T10:22:31;5.57;;;3.35;;
61505;SDS011;47366;51.916;4.574;2022-07-23T10:28:29;3.95;;;2.22;;
61505;SDS011;47366;51.916;4.574;2022-07-23T10:39:22;4.10;;;1.63;;
61505;SDS011;47366;51.916;4.574;2022-07-23T10:41:49;4.57;;;1.70;;
61505;SDS011;47366;51.916;4.574;2022-07-23T10:44:20;4.72;;;1.95;;
61505;SDS011;47366;51.916;4.574;2022-07-23T10:47:04;4.00;;;1.75;;
61505;SDS011;47366;51.916;4.574;2022-07-23T10:49:35;3.03;;;1.90;;
61505;SDS011;47366;51.916;4.574;2022-07-23T10:57:49;6.68;;;1.80;;
61505;SDS011;47366;51.916;4.574;2022-07-23T11:00:16;2.40;;;1.42;;
61505;SDS011;47366;51.916;4.574;2022-07-23T11:02:46;3.28;;;1.55;;
61505;SDS011;47366;51.916;4.574;2022-07-23T11:05:13;3.35;;;1.77;;
61505;SDS011;47366;51.916;4.574;2022-07-23T11:10:34;5.93;;;1.95;;
61505;SDS011;47366;51.916;4.574;2022-07-23T11:16:07;3.78;;;1.45;;
61505;SDS011;47366;51.916;4.574;2022-07-23T11:31:53;4.15;;;2.03;;
61505;SDS011;47366;51.916;4.574;2022-07-23T11:34:40;7.65;;;1.70;;
61505;SDS011;47366;51.916;4.574;2022-07-23T11:37:11;5.32;;;1.27;;
61505;SDS011;47366;51.916;4.574;2022-07-23T11:39:54;5.13;;;1.48;;
61505;SDS011;47366;51.916;4.574;2022-07-23T11:42:20;2.13;;;1.38;;
61505;SDS011;47366;51.916;4.574;2022-07-23T11:44:46;3.25;;;1.73;;
61505;SDS011;47366;51.916;4.574;2022-07-23T11:47:12;3.50;;;1.50;;
61505;SDS011;47366;51.916;4.574;2022-07-23T11:49:38;4.50;;;1.70;;
61505;SDS011;47366;51.916;4.574;2022-07-23T11:54:37;3.25;;;1.60;;
61505;SDS011;47366;51.916;4.574;2022-07-23T11:57:12;3.28;;;1.58;;
61505;SDS011;47366;51.916;4.574;2022-07-23T11:59:37;3.60;;;1.67;;
61505;SDS011;47366;51.916;4.574;2022-07-23T12:02:04;2.58;;;1.63;;
61505;SDS011;47366;51.916;4.574;2022-07-23T12:04:41;3.78;;;1.45;;
61505;SDS011;47366;51.916;4.574;2022-07-23T12:09:51;4.38;;;1.63;;
61505;SDS011;47366;51.916;4.574;2022-07-23T12:12:16;3.47;;;1.60;;
61505;SDS011;47366;51.916;4.574;2022-07-23T12:17:14;2.65;;;1.63;;
61505;SDS011;47366;51.916;4.574;2022-07-23T12:19:40;3.42;;;1.60;;
61505;SDS011;47366;51.916;4.574;2022-07-23T12:22:05;3.60;;;1.52;;
61505;SDS011;47366;51.916;4.574;2022-07-23T12:24:31;4.40;;;1.55;;
61505;SDS011;47366;51.916;4.574;2022-07-23T12:27:09;3.47;;;1.60;;
61505;SDS011;47366;51.916;4.574;2022-07-23T12:29:36;4.93;;;1.77;;
61505;SDS011;47366;51.916;4.574;2022-07-23T12:32:02;4.45;;;1.65;;
61505;SDS011;47366;51.916;4.574;2022-07-23T12:34:27;3.45;;;1.80;;
61505;SDS011;47366;51.916;4.574;2022-07-23T12:36:53;4.18;;;1.67;;
61505;SDS011;47366;51.916;4.574;2022-07-23T12:39:30;4.00;;;1.40;;
61505;SDS011;47366;51.916;4.574;2022-07-23T12:41:56;2.95;;;1.58;;
61505;SDS011;47366;51.916;4.574;2022-07-23T12:44:22;4.10;;;1.80;;
61505;SDS011;47366;51.916;4.574;2022-07-23T12:46:51;3.53;;;1.60;;
61505;SDS011;47366;51.916;4.574;2022-07-23T12:49:27;5.47;;;1.98;;
61505;SDS011;47366;51.916;4.574;2022-07-23T12:51:54;3.50;;;1.60;;
61505;SDS011;47366;51.916;4.574;2022-07-23T12:54:19;4.57;;;1.65;;
61505;SDS011;47366;51.916;4.574;2022-07-23T12:56:52;4.35;;;1.73;;
61505;SDS011;47366;51.916;4.574;2022-07-23T12:59:18;3.13;;;1.70;;
61505;SDS011;47366;51.916;4.574;2022-07-23T13:01:44;2.63;;;1.60;;
61505;SDS011;47366;51.916;4.574;2022-07-23T13:04:23;3.78;;;1.70;;
61505;SDS011;47366;51.916;4.574;2022-07-23T13:06:50;3.80;;;1.52;;
61505;SDS011;47366;51.916;4.574;2022-07-23T13:09:27;3.05;;;1.88;;
61505;SDS011;47366;51.916;4.574;2022-07-23T13:11:54;4.03;;;2.00;;
61505;SDS011;47366;51.916;4.574;2022-07-23T13:14:21;2.92;;;1.48;;
61505;SDS011;47366;51.916;4.574;2022-07-23T13:16:48;4.03;;;2.30;;
61505;SDS011;47366;51.916;4.574;2022-07-23T13:19:14;5.07;;;1.60;;
61505;SDS011;47366;51.916;4.574;2022-07-23T13:21:40;3.92;;;1.88;;
61505;SDS011;47366;51.916;4.574;2022-07-23T13:24:07;2.83;;;1.83;;
61505;SDS011;47366;51.916;4.574;2022-07-23T13:26:34;2.40;;;1.48;;
61505;SDS011;47366;51.916;4.574;2022-07-23T13:28:59;3.33;;;1.70;;
61505;SDS011;47366;51.916;4.574;2022-07-23T13:31:24;2.78;;;1.60;;
61505;SDS011;47366;51.916;4.574;2022-07-23T13:33:50;2.80;;;1.67;;
61505;SDS011;47366;51.916;4.574;2022-07-23T13:36:15;2.38;;;1.35;;
61505;SDS011;47366;51.916;4.574;2022-07-23T13:38:41;2.70;;;1.58;;
61505;SDS011;47366;51.916;4.574;2022-07-23T13:41:06;3.15;;;1.70;;
61505;SDS011;47366;51.916;4.574;2022-07-23T13:43:32;3.38;;;2.00;;
61505;SDS011;47366;51.916;4.574;2022-07-23T13:45:58;3.42;;;1.85;;
61505;SDS011;47366;51.916;4.574;2022-07-23T13:48:23;4.50;;;2.17;;
61505;SDS011;47366;51.916;4.574;2022-07-23T13:50:49;5.20;;;2.00;;
61505;SDS011;47366;51.916;4.574;2022-07-23T13:53:16;4.97;;;2.90;;
61505;SDS011;47366;51.916;4.574;2022-07-23T13:55:43;3.67;;;2.17;;
61505;SDS011;47366;51.916;4.574;2022-07-23T13:58:09;2.65;;;1.80;;
61505;SDS011;47366;51.916;4.574;2022-07-23T14:00:37;2.78;;;1.80;;
61505;SDS011;47366;51.916;4.574;2022-07-23T14:03:04;2.90;;;1.70;;
61505;SDS011;47366;51.916;4.574;2022-07-23T14:05:30;3.78;;;1.70;;
61505;SDS011;47366;51.916;4.574;2022-07-23T14:07:55;2.40;;;1.40;;
61505;SDS011;47366;51.916;4.574;2022-07-23T14:10:21;3.22;;;1.25;;
61505;SDS011;47366;51.916;4.574;2022-07-23T14:12:47;2.40;;;1.10;;
61505;SDS011;47366;51.916;4.574;2022-07-23T14:15:14;2.30;;;1.30;;
61505;SDS011;47366;51.916;4.574;2022-07-23T14:17:40;1.48;;;1.10;;
61505;SDS011;47366;51.916;4.574;2022-07-23T14:20:07;2.30;;;1.20;;
61505;SDS011;47366;51.916;4.574;2022-07-23T14:22:34;1.25;;;1.10;;
61505;SDS011;47366;51.916;4.574;2022-07-23T14:25:00;1.92;;;1.25;;
61505;SDS011;47366;51.916;4.574;2022-07-23T14:27:26;2.35;;;1.30;;
61505;SDS011;47366;51.916;4.574;2022-07-23T14:29:52;2.25;;;1.30;;
61505;SDS011;47366;51.916;4.574;2022-07-23T14:32:19;2.60;;;1.17;;
61505;SDS011;47366;51.916;4.574;2022-07-23T14:34:53;2.42;;;1.00;;
61505;SDS011;47366;51.916;4.574;2022-07-23T14:37:19;1.70;;;0.90;;
61505;SDS011;47366;51.916;4.574;2022-07-23T14:39:44;3.53;;;1.08;;
61505;SDS011;47366;51.916;4.574;2022-07-23T14:42:10;3.63;;;1.40;;
61505;SDS011;47366;51.916;4.574;2022-07-23T14:44:37;1.92;;;0.98;;
61505;SDS011;47366;51.916;4.574;2022-07-23T14:47:03;1.52;;;0.90;;
61505;SDS011;47366;51.916;4.574;2022-07-23T14:49:33;2.97;;;1.10;;
61505;SDS011;47366;51.916;4.574;2022-07-23T14:51:59;1.52;;;0.93;;
61505;SDS011;47366;51.916;4.574;2022-07-23T14:54:25;2.42;;;0.93;;
61505;SDS011;47366;51.916;4.574;2022-07-23T14:56:51;3.35;;;1.30;;
61505;SDS011;47366;51.916;4.574;2022-07-23T14:59:20;1.75;;;1.17;;
61505;SDS011;47366;51.916;4.574;2022-07-23T15:01:45;1.98;;;1.23;;
61505;SDS011;47366;51.916;4.574;2022-07-23T15:04:11;1.65;;;1.10;;
61505;SDS011;47366;51.916;4.574;2022-07-23T15:06:36;1.80;;;1.10;;
61505;SDS011;47366;51.916;4.574;2022-07-23T15:09:03;3.67;;;1.30;;
61505;SDS011;47366;51.916;4.574;2022-07-23T15:11:29;4.50;;;1.27;;
61505;SDS011;47366;51.916;4.574;2022-07-23T15:13:58;3.28;;;1.33;;
61505;SDS011;47366;51.916;4.574;2022-07-23T15:16:24;2.45;;;1.48;;
61505;SDS011;47366;51.916;4.574;2022-07-23T15:18:49;1.50;;;1.13;;
61505;SDS011;47366;51.916;4.574;2022-07-23T15:21:15;4.20;;;1.27;;
61505;SDS011;47366;51.916;4.574;2022-07-23T15:23:40;3.60;;;1.90;;
61505;SDS011;47366;51.916;4.574;2022-07-23T15:26:06;2.25;;;1.42;;
61505;SDS011;47366;51.916;4.574;2022-07-23T15:28:32;2.22;;;1.23;;
61505;SDS011;47366;51.916;4.574;2022-07-23T15:30:58;3.72;;;1.35;;
61505;SDS011;47366;51.916;4.574;2022-07-23T15:33:24;2.75;;;1.55;;
61505;SDS011;47366;51.916;4.574;2022-07-23T15:35:49;2.53;;;1.48;;
61505;SDS011;47366;51.916;4.574;2022-07-23T15:38:15;2.47;;;1.23;;
61505;SDS011;47366;51.916;4.574;2022-07-23T15:40:40;3.85;;;1.50;;
61505;SDS011;47366;51.916;4.574;2022-07-23T15:43:06;4.32;;;1.55;;
61505;SDS011;47366;51.916;4.574;2022-07-23T15:45:31;4.13;;;1.60;;
61505;SDS011;47366;51.916;4.574;2022-07-23T15:47:57;2.67;;;1.58;;
61505;SDS011;47366;51.916;4.574;2022-07-23T15:50:23;3.78;;;1.98;;
61505;SDS011;47366;51.916;4.574;2022-07-23T15:52:48;4.68;;;1.90;;
61505;SDS011;47366;51.916;4.574;2022-07-23T15:55:14;4.25;;;1.85;;
61505;SDS011;47366;51.916;4.574;2022-07-23T15:57:39;2.63;;;1.67;;
61505;SDS011;47366;51.916;4.574;2022-07-23T16:00:05;3.28;;;1.90;;
61505;SDS011;47366;51.916;4.574;2022-07-23T16:02:32;3.42;;;1.80;;
61505;SDS011;47366;51.916;4.574;2022-07-23T16:04:58;4.00;;;2.00;;
61505;SDS011;47366;51.916;4.574;2022-07-23T16:07:23;3.92;;;1.98;;
61505;SDS011;47366;51.916;4.574;2022-07-23T16:09:48;5.47;;;2.30;;
61505;SDS011;47366;51.916;4.574;2022-07-23T16:12:14;8.18;;;2.00;;
61505;SDS011;47366;51.916;4.574;2022-07-23T16:14:40;3.67;;;1.83;;
61505;SDS011;47366;51.916;4.574;2022-07-23T16:17:05;3.88;;;2.03;;
61505;SDS011;47366;51.916;4.574;2022-07-23T16:19:30;2.33;;;1.45;;
61505;SDS011;47366;51.916;4.574;2022-07-23T16:21:56;5.65;;;1.90;;
61505;SDS011;47366;51.916;4.574;2022-07-23T16:24:21;4.93;;;1.92;;
61505;SDS011;47366;51.916;4.574;2022-07-23T16:26:47;3.00;;;1.63;;
61505;SDS011;47366;51.916;4.574;2022-07-23T16:29:12;14.48;;;2.20;;
61505;SDS011;47366;51.916;4.574;2022-07-23T16:31:38;3.83;;;2.10;;
61505;SDS011;47366;51.916;4.574;2022-07-23T16:34:04;4.32;;;2.13;;
61505;SDS011;47366;51.916;4.574;2022-07-23T16:36:29;3.95;;;2.08;;
61505;SDS011;47366;51.916;4.574;2022-07-23T16:38:55;5.40;;;2.35;;
61505;SDS011;47366;51.916;4.574;2022-07-23T16:41:20;3.53;;;1.92;;
61505;SDS011;47366;51.916;4.574;2022-07-23T16:43:46;5.18;;;2.30;;
61505;SDS011;47366;51.916;4.574;2022-07-23T16:46:12;3.28;;;2.10;;
61505;SDS011;47366;51.916;4.574;2022-07-23T16:48:38;3.25;;;1.90;;
61505;SDS011;47366;51.916;4.574;2022-07-23T16:51:03;3.78;;;1.98;;
61505;SDS011;47366;51.916;4.574;2022-07-23T16:53:29;4.35;;;2.15;;
61505;SDS011;47366;51.916;4.574;2022-07-23T16:55:54;3.47;;;2.38;;
61505;SDS011;47366;51.916;4.574;2022-07-23T16:58:20;6.32;;;2.65;;
61505;SDS011;47366;51.916;4.574;2022-07-23T17:00:45;3.92;;;2.05;;
61505;SDS011;47366;51.916;4.574;2022-07-23T17:03:10;5.38;;;2.40;;
61505;SDS011;47366;51.916;4.574;2022-07-23T17:05:36;4.60;;;2.22;;
61505;SDS011;47366;51.916;4.574;2022-07-23T17:08:02;3.50;;;2.00;;
61505;SDS011;47366;51.916;4.574;2022-07-23T17:10:27;4.68;;;2.30;;
61505;SDS011;47366;51.916;4.574;2022-07-23T17:12:53;7.30;;;2.22;;
61505;SDS011;47366;51.916;4.574;2022-07-23T17:15:19;4.60;;;2.33;;
61505;SDS011;47366;51.916;4.574;2022-07-23T17:17:45;5.22;;;2.20;;
61505;SDS011;47366;51.916;4.574;2022-07-23T17:20:11;3.70;;;1.95;;
61505;SDS011;47366;51.916;4.574;2022-07-23T17:22:37;4.50;;;2.47;;
61505;SDS011;47366;51.916;4.574;2022-07-23T17:25:04;4.10;;;2.28;;
61505;SDS011;47366;51.916;4.574;2022-07-23T17:27:34;3.60;;;2.42;;
61505;SDS011;47366;51.916;4.574;2022-07-23T17:30:00;5.60;;;3.03;;
61505;SDS011;47366;51.916;4.574;2022-07-23T17:32:26;4.30;;;2.35;;
61505;SDS011;47366;51.916;4.574;2022-07-23T17:34:52;4.70;;;2.42;;
61505;SDS011;47366;51.916;4.574;2022-07-23T17:37:17;4.80;;;2.40;;
61505;SDS011;47366;51.916;4.574;2022-07-23T17:39:43;4.82;;;2.63;;
61505;SDS011;47366;51.916;4.574;2022-07-23T17:42:08;5.25;;;2.38;;
61505;SDS011;47366;51.916;4.574;2022-07-23T17:44:34;4.15;;;2.70;;
61505;SDS011;47366;51.916;4.574;2022-07-23T17:46:59;5.05;;;2.75;;
61505;SDS011;47366;51.916;4.574;2022-07-23T17:49:24;4.00;;;2.30;;
61505;SDS011;47366;51.916;4.574;2022-07-23T17:51:50;3.90;;;2.17;;
61505;SDS011;47366;51.916;4.574;2022-07-23T17:54:15;3.30;;;2.13;;
61505;SDS011;47366;51.916;4.574;2022-07-23T17:56:41;4.15;;;2.13;;
61505;SDS011;47366;51.916;4.574;2022-07-23T17:59:06;4.60;;;2.10;;
61505;SDS011;47366;51.916;4.574;2022-07-23T18:01:33;4.43;;;2.35;;
61505;SDS011;47366;51.916;4.574;2022-07-23T18:04:00;5.80;;;3.00;;
61505;SDS011;47366;51.916;4.574;2022-07-23T18:06:25;4.03;;;2.35;;
61505;SDS011;47366;51.916;4.574;2022-07-23T18:08:51;5.70;;;2.30;;
61505;SDS011;47366;51.916;4.574;2022-07-23T18:11:16;6.47;;;2.10;;
61505;SDS011;47366;51.916;4.574;2022-07-23T18:13:42;4.88;;;2.45;;
61505;SDS011;47366;51.916;4.574;2022-07-23T18:16:07;3.65;;;1.88;;
61505;SDS011;47366;51.916;4.574;2022-07-23T18:18:33;5.07;;;2.35;;
61505;SDS011;47366;51.916;4.574;2022-07-23T18:21:00;5.68;;;2.78;;
61505;SDS011;47366;51.916;4.574;2022-07-23T18:23:27;4.13;;;2.45;;
61505;SDS011;47366;51.916;4.574;2022-07-23T18:25:52;5.68;;;2.42;;
61505;SDS011;47366;51.916;4.574;2022-07-23T18:28:19;5.72;;;2.65;;
61505;SDS011;47366;51.916;4.574;2022-07-23T18:30:45;4.50;;;2.47;;
61505;SDS011;47366;51.916;4.574;2022-07-23T18:33:11;5.25;;;2.67;;
61505;SDS011;47366;51.916;4.574;2022-07-23T18:35:38;3.90;;;2.47;;
61505;SDS011;47366;51.916;4.574;2022-07-23T18:38:03;6.82;;;2.85;;
61505;SDS011;47366;51.916;4.574;2022-07-23T18:40:29;4.97;;;3.05;;
61505;SDS011;47366;51.916;4.574;2022-07-23T18:42:54;3.80;;;2.55;;
61505;SDS011;47366;51.916;4.574;2022-07-23T18:45:21;6.35;;;3.13;;
61505;SDS011;47366;51.916;4.574;2022-07-23T18:47:47;6.28;;;2.58;;
61505;SDS011;47366;51.916;4.574;2022-07-23T18:50:13;4.65;;;2.80;;
61505;SDS011;47366;51.916;4.574;2022-07-23T18:52:38;4.25;;;2.80;;
61505;SDS011;47366;51.916;4.574;2022-07-23T18:55:04;6.78;;;3.03;;
61505;SDS011;47366;51.916;4.574;2022-07-23T18:57:31;5.32;;;3.22;;
61505;SDS011;47366;51.916;4.574;2022-07-23T18:59:56;6.03;;;2.97;;
61505;SDS011;47366;51.916;4.574;2022-07-23T19:02:21;6.15;;;3.00;;
61505;SDS011;47366;51.916;4.574;2022-07-23T19:04:47;5.72;;;3.70;;
61505;SDS011;47366;51.916;4.574;2022-07-23T19:07:12;6.45;;;3.22;;
61505;SDS011;47366;51.916;4.574;2022-07-23T19:09:38;6.93;;;3.05;;
61505;SDS011;47366;51.916;4.574;2022-07-23T19:12:03;7.68;;;3.22;;
61505;SDS011;47366;51.916;4.574;2022-07-23T19:14:29;6.43;;;3.40;;
61505;SDS011;47366;51.916;4.574;2022-07-23T19:16:54;6.32;;;3.33;;
61505;SDS011;47366;51.916;4.574;2022-07-23T19:19:20;6.40;;;3.53;;
61505;SDS011;47366;51.916;4.574;2022-07-23T19:21:45;5.82;;;3.40;;
61505;SDS011;47366;51.916;4.574;2022-07-23T19:24:11;6.53;;;3.63;;
61505;SDS011;47366;51.916;4.574;2022-07-23T19:26:37;5.22;;;2.95;;
61505;SDS011;47366;51.916;4.574;2022-07-23T19:29:02;6.32;;;3.08;;
61505;SDS011;47366;51.916;4.574;2022-07-23T19:31:28;6.25;;;3.30;;
61505;SDS011;47366;51.916;4.574;2022-07-23T19:33:54;6.13;;;3.47;;
61505;SDS011;47366;51.916;4.574;2022-07-23T19:36:20;6.72;;;3.60;;
61505;SDS011;47366;51.916;4.574;2022-07-23T19:38:45;4.82;;;2.88;;
61505;SDS011;47366;51.916;4.574;2022-07-23T19:41:11;5.50;;;3.00;;
61505;SDS011;47366;51.916;4.574;2022-07-23T19:43:36;7.30;;;3.25;;
61505;SDS011;47366;51.916;4.574;2022-07-23T19:46:02;7.38;;;3.33;;
61505;SDS011;47366;51.916;4.574;2022-07-23T19:48:27;11.88;;;4.47;;
61505;SDS011;47366;51.916;4.574;2022-07-23T19:50:53;7.88;;;4.35;;
61505;SDS011;47366;51.916;4.574;2022-07-23T19:53:19;8.57;;;5.57;;
61505;SDS011;47366;51.916;4.574;2022-07-23T19:55:44;8.15;;;5.43;;
61505;SDS011;47366;51.916;4.574;2022-07-23T19:58:10;11.98;;;6.55;;
61505;SDS011;47366;51.916;4.574;2022-07-23T20:00:35;10.25;;;5.40;;
61505;SDS011;47366;51.916;4.574;2022-07-23T20:03:03;9.20;;;5.43;;
61505;SDS011;47366;51.916;4.574;2022-07-23T20:05:28;7.22;;;4.63;;
61505;SDS011;47366;51.916;4.574;2022-07-23T20:07:54;9.90;;;4.07;;
61505;SDS011;47366;51.916;4.574;2022-07-23T20:10:19;7.45;;;4.07;;
61505;SDS011;47366;51.916;4.574;2022-07-23T20:12:45;8.60;;;3.85;;
61505;SDS011;47366;51.916;4.574;2022-07-23T20:15:12;6.05;;;3.65;;
61505;SDS011;47366;51.916;4.574;2022-07-23T20:17:37;10.38;;;3.95;;
61505;SDS011;47366;51.916;4.574;2022-07-23T20:20:03;5.78;;;3.17;;
61505;SDS011;47366;51.916;4.574;2022-07-23T20:22:30;5.80;;;3.70;;
61505;SDS011;47366;51.916;4.574;2022-07-23T20:24:56;8.45;;;3.70;;
61505;SDS011;47366;51.916;4.574;2022-07-23T20:27:21;9.45;;;3.88;;
61505;SDS011;47366;51.916;4.574;2022-07-23T20:29:47;5.93;;;3.47;;
61505;SDS011;47366;51.916;4.574;2022-07-23T20:32:12;6.95;;;3.33;;
61505;SDS011;47366;51.916;4.574;2022-07-23T20:34:37;5.72;;;3.38;;
61505;SDS011;47366;51.916;4.574;2022-07-23T20:37:03;7.82;;;3.25;;
61505;SDS011;47366;51.916;4.574;2022-07-23T20:39:28;5.30;;;2.67;;
61505;SDS011;47366;51.916;4.574;2022-07-23T20:41:54;6.28;;;3.78;;
61505;SDS011;47366;51.916;4.574;2022-07-23T20:44:19;5.70;;;3.58;;
61505;SDS011;47366;51.916;4.574;2022-07-23T20:46:45;6.65;;;3.85;;
61505;SDS011;47366;51.916;4.574;2022-07-23T20:49:11;6.65;;;3.40;;
61505;SDS011;47366;51.916;4.574;2022-07-23T20:51:38;5.38;;;3.17;;
61505;SDS011;47366;51.916;4.574;2022-07-23T20:54:04;6.82;;;3.55;;
61505;SDS011;47366;51.916;4.574;2022-07-23T20:56:29;7.13;;;3.38;;
61505;SDS011;47366;51.916;4.574;2022-07-23T20:58:55;5.43;;;3.45;;
61505;SDS011;47366;51.916;4.574;2022-07-23T21:01:20;5.50;;;3.63;;